sensor_id;sensor_type;location;lat;lon;timestamp;temperature;humidity
22442;DHT22;11388;54.456;9.752;2023-06-14T06:58:12;19.00;99.90
22442;DHT22;11388;54.456;9.752;2023-06-14T07:00:38;19.00;99.90
22442;DHT22;11388;54.456;9.752;2023-06-14T07:03:04;19.10;99.90
22442;DHT22;11388;54.456;9.752;2023-06-14T07:05:30;19.20;99.90
22442;DHT22;11388;54.456;9.752;2023-06-14T07:07:57;19.10;99.90
22442;DHT22;11388;54.456;9.752;2023-06-14T07:10:22;19.20;99.90
22442;DHT22;11388;54.456;9.752;2023-06-14T07:12:50;19.20;99.90
22442;DHT22;11388;54.456;9.752;2023-06-14T07:15:16;19.30;99.90
22442;DHT22;11388;54.456;9.752;2023-06-14T07:17:42;19.30;99.90
22442;DHT22;11388;54.456;9.752;2023-06-14T07:20:08;19.40;99.90
22442;DHT22;11388;54.456;9.752;2023-06-14T07:22:40;19.40;99.90
22442;DHT22;11388;54.456;9.752;2023-06-14T07:25:15;19.50;99.90
22442;DHT22;11388;54.456;9.752;2023-06-14T07:27:41;19.50;99.90
22442;DHT22;11388;54.456;9.752;2023-06-14T07:30:08;19.60;99.90
22442;DHT22;11388;54.456;9.752;2023-06-14T07:32:34;19.60;99.90
22442;DHT22;11388;54.456;9.752;2023-06-14T07:35:00;19.70;99.90
22442;DHT22;11388;54.456;9.752;2023-06-14T07:37:26;19.70;99.90
22442;DHT22;11388;54.456;9.752;2023-06-14T07:39:51;19.80;99.90
22442;DHT22;11388;54.456;9.752;2023-06-14T07:42:17;19.80;99.90
22442;DHT22;11388;54.456;9.752;2023-06-14T07:44:43;19.90;99.90
22442;DHT22;11388;54.456;9.752;2023-06-14T07:47:09;19.90;99.90
22442;DHT22;11388;54.456;9.752;2023-06-14T07:49:34;20.00;99.90
22442;DHT22;11388;54.456;9.752;2023-06-14T07:52:00;20.10;99.90
22442;DHT22;11388;54.456;9.752;2023-06-14T07:54:26;20.10;99.90
22442;DHT22;11388;54.456;9.752;2023-06-14T08:00:10;20.10;99.90
22442;DHT22;11388;54.456;9.752;2023-06-14T08:02:41;20.20;99.90
22442;DHT22;11388;54.456;9.752;2023-06-14T08:05:08;20.20;99.90
22442;DHT22;11388;54.456;9.752;2023-06-14T08:07:34;20.30;99.90
22442;DHT22;11388;54.456;9.752;2023-06-14T08:10:00;20.30;99.90
22442;DHT22;11388;54.456;9.752;2023-06-14T08:12:26;20.30;99.90
22442;DHT22;11388;54.456;9.752;2023-06-14T08:14:51;20.30;99.90
22442;DHT22;11388;54.456;9.752;2023-06-14T08:17:17;20.40;99.90
22442;DHT22;11388;54.456;9.752;2023-06-14T08:19:43;20.40;99.90
22442;DHT22;11388;54.456;9.752;2023-06-14T08:22:09;20.50;99.90
22442;DHT22;11388;54.456;9.752;2023-06-14T08:24:37;20.50;99.90
22442;DHT22;11388;54.456;9.752;2023-06-14T08:27:15;20.50;99.90
22442;DHT22;11388;54.456;9.752;2023-06-14T08:29:41;20.60;99.90
22442;DHT22;11388;54.456;9.752;2023-06-14T08:32:07;20.70;99.90
22442;DHT22;11388;54.456;9.752;2023-06-14T08:34:36;20.70;99.90
22442;DHT22;11388;54.456;9.752;2023-06-14T08:37:01;20.70;99.90
22442;DHT22;11388;54.456;9.752;2023-06-14T08:39:27;20.70;99.90
22442;DHT22;11388;54.456;9.752;2023-06-14T08:41:54;20.80;99.90
22442;DHT22;11388;54.456;9.752;2023-06-14T08:44:22;20.90;99.90
22442;DHT22;11388;54.456;9.752;2023-06-14T08:46:48;20.90;99.90
22442;DHT22;11388;54.456;9.752;2023-06-14T08:49:16;21.00;99.90
22442;DHT22;11388;54.456;9.752;2023-06-14T08:51:43;21.00;99.90
22442;DHT22;11388;54.456;9.752;2023-06-14T08:56:45;21.10;99.90
22442;DHT22;11388;54.456;9.752;2023-06-14T08:59:11;21.20;99.90
22442;DHT22;11388;54.456;9.752;2023-06-14T09:01:37;21.20;99.90
22442;DHT22;11388;54.456;9.752;2023-06-14T09:04:09;21.30;99.90
22442;DHT22;11388;54.456;9.752;2023-06-14T09:06:45;21.30;99.90
22442;DHT22;11388;54.456;9.752;2023-06-14T09:09:11;21.40;99.90
22442;DHT22;11388;54.456;9.752;2023-06-14T10:16:32;22.20;99.90
22442;DHT22;11388;54.456;9.752;2023-06-14T10:19:41;22.30;99.90
22442;DHT22;11388;54.456;9.752;2023-06-14T21:32:24;18.40;99.90
22442;DHT22;11388;54.456;9.752;2023-06-14T21:35:28;18.40;99.90
22442;DHT22;11388;54.456;9.752;2023-06-14T21:41:24;18.20;99.90
22442;DHT22;11388;54.456;9.752;2023-06-14T21:48:14;18.20;99.90
22442;DHT22;11388;54.456;9.752;2023-06-14T21:51:04;18.00;99.90
22442;DHT22;11388;54.456;9.752;2023-06-14T22:03:38;17.70;99.90
22442;DHT22;11388;54.456;9.752;2023-06-14T23:09:26;16.30;99.90
